createdAt,value
2022-12-19T00:01:19.699Z,100307.84
2022-12-19T00:02:23.183Z,100305.78
2022-12-19T00:03:26.459Z,100311.00
2022-12-19T00:04:29.542Z,100313.00
2022-12-19T00:05:37.277Z,100310.44
2022-12-19T00:06:42.296Z,100312.34
2022-12-19T00:07:49.605Z,100313.84
2022-12-19T00:08:53.682Z,100320.28
2022-12-19T00:09:56.611Z,100326.53
2022-12-19T00:11:02.097Z,100326.50
2022-12-19T00:12:05.105Z,100325.13
2022-12-19T00:13:08.511Z,100329.00
2022-12-19T00:14:12.173Z,100325.88
2022-12-19T00:15:15.054Z,100324.41
2022-12-19T00:16:24.646Z,100323.47
2022-12-19T00:17:27.506Z,100323.81
2022-12-19T00:18:30.579Z,100321.84
2022-12-19T00:19:34.131Z,100321.38
2022-12-19T00:20:37.031Z,100323.81
2022-12-19T00:21:43.369Z,100326.50
2022-12-19T00:22:46.793Z,100323.12
2022-12-19T00:23:50.828Z,100323.28
2022-12-19T00:24:53.898Z,100326.94
2022-12-19T00:26:07.047Z,100321.50
2022-12-19T00:27:10.243Z,100323.12
2022-12-19T00:28:13.118Z,100319.47
2022-12-19T00:29:16.347Z,100317.53
2022-12-19T00:30:19.314Z,100324.69
2022-12-19T00:31:23.631Z,100312.22
2022-12-19T00:32:26.695Z,100316.22
2022-12-19T00:33:30.042Z,100326.44
2022-12-19T00:34:33.219Z,100326.50
2022-12-19T00:35:36.261Z,100318.94
2022-12-19T00:36:39.356Z,100323.56
2022-12-19T00:37:49.421Z,100321.84
2022-12-19T00:38:55.285Z,100321.84
2022-12-19T00:39:58.381Z,100319.91
2022-12-19T00:41:22.220Z,100324.72
2022-12-19T00:42:25.400Z,100325.22
2022-12-19T00:43:28.492Z,100315.88
2022-12-19T00:44:31.673Z,100324.84
2022-12-19T00:45:38.684Z,100321.78
2022-12-19T00:46:42.314Z,100319.22
2022-12-19T00:47:45.219Z,100318.56
2022-12-19T00:48:48.386Z,100322.44
2022-12-19T00:49:51.489Z,100316.22
2022-12-19T00:51:15.717Z,100311.22
2022-12-19T00:52:18.702Z,100314.94
2022-12-19T00:53:21.937Z,100316.38
2022-12-19T00:54:24.931Z,100310.69
2022-12-19T00:55:28.349Z,100311.37
2022-12-19T00:56:37.219Z,100318.72
2022-12-19T00:57:40.832Z,100320.88
2022-12-19T00:58:47.101Z,100320.25
2022-12-19T00:59:50.204Z,100308.53
2022-12-19T01:00:53.015Z,100317.06
2022-12-19T01:01:56.009Z,100311.78
2022-12-19T01:03:00.535Z,100307.56
2022-12-19T01:05:30.784Z,100317.50
2022-12-19T01:06:34.069Z,100310.66
2022-12-19T01:07:37.252Z,100306.81
2022-12-19T01:08:40.412Z,100313.34
2022-12-19T01:09:43.089Z,100309.19
2022-12-19T01:10:47.973Z,100304.69
2022-12-19T01:12:09.178Z,100302.41
2022-12-19T01:13:11.967Z,100305.56
2022-12-19T01:14:20.734Z,100307.38
2022-12-19T01:15:25.412Z,100300.19
2022-12-19T01:16:28.144Z,100310.75
2022-12-19T01:17:30.948Z,100303.22
2022-12-19T01:18:34.455Z,100294.87
2022-12-19T01:19:43.395Z,100300.16
2022-12-19T01:20:49.972Z,100298.09
2022-12-19T01:21:52.744Z,100294.87
2022-12-19T01:22:56.223Z,100294.72
2022-12-19T01:24:02.558Z,100289.62
2022-12-19T01:25:06.400Z,100284.78
2022-12-19T01:26:09.029Z,100271.94
2022-12-19T01:27:11.961Z,100269.66
2022-12-19T01:28:15.818Z,100273.66
2022-12-19T01:29:19.299Z,100273.84
2022-12-19T01:30:22.141Z,100274.28
2022-12-19T01:31:25.742Z,100279.91
2022-12-19T01:32:28.770Z,100271.59
2022-12-19T01:33:31.749Z,100268.53
2022-12-19T01:34:34.523Z,100267.13
2022-12-19T01:35:37.284Z,100271.94
2022-12-19T01:36:40.408Z,100270.47
2022-12-19T01:37:43.358Z,100266.91
2022-12-19T01:38:46.224Z,100258.41
2022-12-19T01:39:49.208Z,100269.03
2022-12-19T01:40:55.007Z,100254.25
2022-12-19T01:41:58.272Z,100250.63
2022-12-19T01:43:04.304Z,100257.81
2022-12-19T01:44:09.202Z,100253.97
2022-12-19T01:45:13.973Z,100254.25
2022-12-19T01:46:17.674Z,100257.97
2022-12-19T01:47:23.356Z,100249.59
2022-12-19T01:48:34.270Z,100249.44
2022-12-19T01:49:37.406Z,100258.19
2022-12-19T01:51:01.397Z,100256.81
2022-12-19T01:52:09.078Z,100254.88
2022-12-19T01:53:14.843Z,100257.66
2022-12-19T01:54:22.722Z,100258.75
2022-12-19T01:55:26.375Z,100254.13
2022-12-19T01:56:33.139Z,100263.09
2022-12-19T01:57:38.298Z,100254.59
2022-12-19T01:58:47.931Z,100257.34
2022-12-19T01:59:57.393Z,100259.72
2022-12-19T02:01:00.456Z,100251.19
2022-12-19T02:02:30.365Z,100254.03
2022-12-19T02:03:37.102Z,100257.44
2022-12-19T02:04:45.473Z,100261.72
2022-12-19T02:05:48.465Z,100253.44
2022-12-19T02:06:53.169Z,100259.38
2022-12-19T02:07:55.985Z,100260.97
2022-12-19T02:08:58.825Z,100261.59
2022-12-19T02:10:01.792Z,100275.06
2022-12-19T02:11:04.783Z,100269.97
2022-12-19T02:12:07.829Z,100272.50
2022-12-19T02:13:11.431Z,100272.97
2022-12-19T02:14:14.350Z,100268.19
2022-12-19T02:15:17.752Z,100266.03
2022-12-19T02:16:35.886Z,100266.31
2022-12-19T02:18:21.536Z,100265.06
2022-12-19T02:19:34.666Z,100264.59
2022-12-19T02:20:37.559Z,100261.84
2022-12-19T02:21:49.321Z,100265.22
2022-12-19T02:23:41.442Z,100261.72
2022-12-19T02:24:54.819Z,100269.19
2022-12-19T02:26:31.755Z,100270.50
2022-12-19T02:27:59.503Z,100275.34
2022-12-19T02:29:23.887Z,100284.00
2022-12-19T02:30:50.709Z,100277.91
2022-12-19T02:32:05.124Z,100282.06
2022-12-19T02:33:30.971Z,100276.31
2022-12-19T02:34:50.371Z,100273.09
2022-12-19T02:36:12.754Z,100279.91
2022-12-19T02:37:26.069Z,100281.69
2022-12-19T02:38:40.180Z,100281.03
2022-12-19T02:39:55.934Z,100276.88
2022-12-19T02:41:09.694Z,100282.00
2022-12-19T02:42:20.322Z,100287.63
2022-12-19T02:43:28.484Z,100283.94
2022-12-19T02:44:42.878Z,100291.22
2022-12-19T02:45:47.181Z,100288.09
2022-12-19T02:46:51.280Z,100293.72
2022-12-19T02:47:54.804Z,100295.13
2022-12-19T02:48:58.296Z,100290.06
2022-12-19T02:50:01.806Z,100289.72
2022-12-19T02:51:05.687Z,100285.28
2022-12-19T02:52:32.534Z,100290.38
2022-12-19T02:53:37.558Z,100283.47
2022-12-19T02:54:45.170Z,100286.81
2022-12-19T02:56:20.918Z,100284.87
2022-12-19T02:57:31.971Z,100285.91
2022-12-19T02:58:34.931Z,100278.69
2022-12-19T03:00:02.980Z,100280.34
2022-12-19T03:01:29.376Z,100281.66
2022-12-19T03:02:40.891Z,100282.25
2022-12-19T03:03:52.033Z,100285.66
2022-12-19T03:05:06.625Z,100287.78
2022-12-19T03:06:24.723Z,100283.56
2022-12-19T03:07:39.134Z,100287.59
2022-12-19T03:09:08.813Z,100279.09
2022-12-19T03:10:45.374Z,100276.84
2022-12-19T03:11:54.165Z,100277.06
2022-12-19T03:13:08.014Z,100268.72
2022-12-19T03:14:18.683Z,100268.28
2022-12-19T03:15:23.695Z,100270.78
2022-12-19T03:16:27.070Z,100264.69
2022-12-19T03:17:35.862Z,100273.22
2022-12-19T03:18:39.269Z,100270.78
2022-12-19T03:19:42.379Z,100259.44
2022-12-19T03:20:48.456Z,100265.66
2022-12-19T03:21:53.062Z,100264.72
2022-12-19T03:22:55.774Z,100265.22
2022-12-19T03:23:59.460Z,100261.50
2022-12-19T03:25:02.833Z,100264.25
2022-12-19T03:26:15.784Z,100252.28
2022-12-19T03:27:26.536Z,100256.75
2022-12-19T03:28:39.434Z,100255.97
2022-12-19T03:29:49.477Z,100247.44
2022-12-19T03:30:54.903Z,100247.13
2022-12-19T03:32:01.335Z,100247.75
2022-12-19T03:33:04.541Z,100251.00
2022-12-19T03:34:16.167Z,100244.59
2022-12-19T03:35:23.137Z,100244.25
2022-12-19T03:36:50.018Z,100235.09
2022-12-19T03:37:56.259Z,100241.22
2022-12-19T03:39:02.342Z,100236.50
2022-12-19T03:40:14.547Z,100243.22
2022-12-19T03:41:40.736Z,100246.00
2022-12-19T03:43:05.750Z,100245.03
2022-12-19T03:44:10.681Z,100244.91
2022-12-19T03:45:22.099Z,100242.97
2022-12-19T03:46:28.091Z,100246.00
2022-12-19T03:47:42.735Z,100248.88
2022-12-19T03:48:48.494Z,100251.38
2022-12-19T03:49:51.383Z,100249.47
2022-12-19T03:51:31.506Z,100248.38
2022-12-19T03:52:46.133Z,100249.59
2022-12-19T03:54:10.272Z,100252.41
2022-12-19T03:55:18.882Z,100245.84
2022-12-19T03:56:32.424Z,100245.38
2022-12-19T03:57:43.369Z,100255.66
2022-12-19T03:58:52.484Z,100250.00
2022-12-19T03:59:57.567Z,100250.47
2022-12-19T04:01:03.842Z,100254.81
2022-12-19T04:02:07.236Z,100256.12
2022-12-19T04:03:11.458Z,100260.91
2022-12-19T04:04:16.214Z,100259.00
2022-12-19T04:05:22.273Z,100255.16
2022-12-19T04:06:29.070Z,100247.81
2022-12-19T04:07:32.814Z,100252.34
2022-12-19T04:08:36.719Z,100254.25
2022-12-19T04:09:42.914Z,100246.53
2022-12-19T04:10:52.310Z,100249.25
2022-12-19T04:12:02.489Z,100252.75
2022-12-19T04:13:14.386Z,100243.19
2022-12-19T04:14:25.548Z,100242.53
2022-12-19T04:16:00.888Z,100244.63
2022-12-19T04:17:18.696Z,100239.63
2022-12-19T04:18:22.582Z,100246.84
2022-12-19T04:19:32.642Z,100246.19
2022-12-19T04:20:39.689Z,100245.72
2022-12-19T04:21:50.838Z,100253.97
2022-12-19T04:23:18.479Z,100254.19
2022-12-19T04:24:30.543Z,100259.59
2022-12-19T04:25:41.415Z,100258.81
2022-12-19T04:26:50.149Z,100259.50
2022-12-19T04:27:59.100Z,100260.91
2022-12-19T04:29:05.447Z,100256.78
2022-12-19T04:30:09.181Z,100250.72
2022-12-19T04:31:14.633Z,100260.50
2022-12-19T04:32:19.441Z,100257.94
2022-12-19T04:33:22.172Z,100250.25
2022-12-19T04:34:25.001Z,100260.53
2022-12-19T04:35:27.892Z,100252.47
2022-12-19T04:36:30.614Z,100264.84
2022-12-19T04:37:33.865Z,100260.47
2022-12-19T04:38:37.192Z,100264.50
2022-12-19T04:39:41.331Z,100263.53
2022-12-19T04:40:44.341Z,100254.06
2022-12-19T04:41:47.226Z,100248.78
2022-12-19T04:42:49.987Z,100248.47
2022-12-19T04:43:52.736Z,100252.59
2022-12-19T04:44:55.506Z,100251.31
2022-12-19T04:45:58.242Z,100250.69
2022-12-19T04:47:01.146Z,100250.22
2022-12-19T04:48:04.107Z,100242.22
2022-12-19T04:49:06.830Z,100240.47
2022-12-19T04:50:10.408Z,100237.72
2022-12-19T04:51:13.195Z,100228.75
2022-12-19T04:52:16.268Z,100236.53
2022-12-19T04:53:19.107Z,100244.81
2022-12-19T04:54:22.143Z,100253.56
2022-12-19T04:55:24.985Z,100250.03
2022-12-19T04:56:28.031Z,100259.22
2022-12-19T04:57:31.548Z,100259.34
2022-12-19T04:58:34.612Z,100260.94
2022-12-19T04:59:37.351Z,100256.31
2022-12-19T05:00:39.947Z,100248.78
2022-12-19T05:01:42.679Z,100253.87
2022-12-19T05:02:46.065Z,100258.38
2022-12-19T05:03:54.261Z,100255.00
2022-12-19T05:04:57.905Z,100254.69
2022-12-19T05:06:14.508Z,100263.31
2022-12-19T05:07:20.038Z,100256.69
2022-12-19T05:08:23.025Z,100255.94
2022-12-19T05:09:25.787Z,100252.31
2022-12-19T05:10:28.546Z,100256.06
2022-12-19T05:11:31.243Z,100264.78
2022-12-19T05:12:33.988Z,100267.53
2022-12-19T05:13:36.804Z,100258.97
2022-12-19T05:14:39.651Z,100261.37
2022-12-19T05:15:42.309Z,100264.31
2022-12-19T05:16:45.070Z,100265.13
2022-12-19T05:17:47.865Z,100265.56
2022-12-19T05:18:50.773Z,100270.69
2022-12-19T05:19:53.558Z,100267.09
2022-12-19T05:20:56.602Z,100269.09
2022-12-19T05:21:59.307Z,100267.22
2022-12-19T05:23:04.979Z,100276.00
2022-12-19T05:24:09.762Z,100274.94
2022-12-19T05:25:12.506Z,100266.06
2022-12-19T05:26:15.583Z,100263.09
2022-12-19T05:27:18.632Z,100262.03
2022-12-19T05:28:21.507Z,100263.31
2022-12-19T05:29:24.260Z,100263.31
2022-12-19T05:30:27.385Z,100267.81
2022-12-19T05:31:30.054Z,100257.91
2022-12-19T05:32:33.919Z,100255.88
2022-12-19T05:33:37.196Z,100256.41
2022-12-19T05:34:39.935Z,100249.81
2022-12-19T05:35:42.606Z,100243.53
2022-12-19T05:36:46.813Z,100246.87
2022-12-19T05:37:49.457Z,100246.28
2022-12-19T05:38:52.427Z,100254.91
2022-12-19T05:39:55.117Z,100249.78
2022-12-19T05:40:57.794Z,100247.84
2022-12-19T05:42:00.582Z,100254.78
2022-12-19T05:43:03.387Z,100257.44
2022-12-19T05:44:06.206Z,100263.94
2022-12-19T05:45:09.321Z,100263.09
2022-12-19T05:46:12.699Z,100261.00
2022-12-19T05:47:15.465Z,100256.56
2022-12-19T05:48:18.431Z,100249.28
2022-12-19T05:49:21.101Z,100248.09
2022-12-19T05:50:24.394Z,100247.56
2022-12-19T05:51:27.169Z,100243.09
2022-12-19T05:52:29.921Z,100249.34
2022-12-19T05:53:35.930Z,100244.31
2022-12-19T05:54:38.763Z,100248.38
2022-12-19T05:55:41.389Z,100245.81
2022-12-19T05:56:45.169Z,100248.22
2022-12-19T05:57:47.948Z,100250.44
2022-12-19T05:58:51.339Z,100251.63
2022-12-19T05:59:54.043Z,100247.84
2022-12-19T06:01:02.679Z,100248.06
2022-12-19T06:02:05.399Z,100240.22
2022-12-19T06:03:08.547Z,100251.47
2022-12-19T06:04:11.373Z,100244.34
2022-12-19T06:05:14.332Z,100248.97
2022-12-19T06:06:19.549Z,100249.66
2022-12-19T06:07:22.331Z,100247.88
2022-12-19T06:08:25.290Z,100258.13
2022-12-19T06:09:28.130Z,100258.72
2022-12-19T06:10:30.883Z,100258.56
2022-12-19T06:11:33.514Z,100258.56
2022-12-19T06:12:36.202Z,100263.59
2022-12-19T06:13:39.713Z,100262.12
2022-12-19T06:14:42.404Z,100266.97
2022-12-19T06:15:45.108Z,100264.03
2022-12-19T06:16:47.932Z,100275.06
2022-12-19T06:17:54.414Z,100274.16
2022-12-19T06:18:57.060Z,100268.28
2022-12-19T06:20:00.196Z,100265.72
2022-12-19T06:21:06.553Z,100263.09
2022-12-19T06:22:09.191Z,100267.44
2022-12-19T06:23:11.848Z,100267.31
2022-12-19T06:24:14.551Z,100269.97
2022-12-19T06:25:17.310Z,100273.47
2022-12-19T06:26:21.627Z,100273.78
2022-12-19T06:27:24.359Z,100264.84
2022-12-19T06:28:28.849Z,100263.84
2022-12-19T06:29:31.663Z,100259.66
2022-12-19T06:30:34.304Z,100263.69
2022-12-19T06:31:37.296Z,100257.28
2022-12-19T06:32:40.013Z,100264.13
2022-12-19T06:33:42.834Z,100278.13
2022-12-19T06:35:03.702Z,100266.12
2022-12-19T06:36:12.012Z,100271.91
2022-12-19T06:37:14.725Z,100270.91
2022-12-19T06:38:17.544Z,100263.97
2022-12-19T06:39:20.293Z,100264.91
2022-12-19T06:40:42.114Z,100267.50
2022-12-19T06:42:03.327Z,100278.56
2022-12-19T06:43:05.939Z,100270.41
2022-12-19T06:44:11.392Z,100278.44
2022-12-19T06:45:15.191Z,100275.31
2022-12-19T06:46:17.939Z,100270.97
2022-12-19T06:47:22.515Z,100269.59
2022-12-19T06:48:27.870Z,100268.66
2022-12-19T06:49:30.899Z,100267.37
2022-12-19T06:50:33.489Z,100266.56
2022-12-19T06:51:36.640Z,100267.84
2022-12-19T06:52:39.723Z,100265.75
2022-12-19T06:53:42.588Z,100260.28
2022-12-19T06:54:45.417Z,100263.97
2022-12-19T06:55:50.575Z,100259.62
2022-12-19T06:56:53.370Z,100266.41
2022-12-19T06:57:56.120Z,100261.94
2022-12-19T06:58:58.887Z,100273.00
2022-12-19T07:00:01.716Z,100270.59
2022-12-19T07:01:05.104Z,100269.16
2022-12-19T07:02:20.307Z,100274.72
2022-12-19T07:03:28.017Z,100271.50
2022-12-19T07:04:40.019Z,100273.12
2022-12-19T07:05:43.037Z,100275.25
2022-12-19T07:06:49.100Z,100275.84
2022-12-19T07:07:52.888Z,100270.38
2022-12-19T07:08:55.621Z,100278.72
2022-12-19T07:09:58.486Z,100275.53
2022-12-19T07:11:02.417Z,100277.28
2022-12-19T07:12:06.537Z,100273.41
2022-12-19T07:13:09.108Z,100287.34
2022-12-19T07:14:11.991Z,100277.56
2022-12-19T07:15:14.688Z,100282.25
2022-12-19T07:16:17.523Z,100283.19
2022-12-19T07:17:22.118Z,100282.41
2022-12-19T07:18:24.882Z,100286.28
2022-12-19T07:19:28.716Z,100280.31
2022-12-19T07:20:34.671Z,100281.75
2022-12-19T07:21:37.835Z,100274.09
2022-12-19T07:22:41.711Z,100275.88
2022-12-19T07:23:44.891Z,100271.56
2022-12-19T07:24:47.804Z,100279.72
2022-12-19T07:25:50.619Z,100280.00
2022-12-19T07:26:53.881Z,100276.50
2022-12-19T07:27:56.876Z,100278.09
2022-12-19T07:29:00.671Z,100283.66
2022-12-19T07:30:06.190Z,100283.03
2022-12-19T07:31:09.006Z,100278.25
2022-12-19T07:32:11.800Z,100270.75
2022-12-19T07:33:19.673Z,100276.22
2022-12-19T07:34:24.010Z,100275.91
2022-12-19T07:35:27.046Z,100271.81
2022-12-19T07:36:29.747Z,100267.66
2022-12-19T07:37:32.511Z,100268.97
2022-12-19T07:38:35.324Z,100265.78
2022-12-19T07:39:37.976Z,100270.56
2022-12-19T07:40:40.684Z,100275.31
2022-12-19T07:41:43.414Z,100266.38
2022-12-19T07:42:46.586Z,100272.91
2022-12-19T07:43:49.495Z,100268.97
2022-12-19T07:44:52.364Z,100270.50
2022-12-19T07:45:56.364Z,100261.00
2022-12-19T07:46:59.155Z,100271.31
2022-12-19T07:48:03.433Z,100268.13
2022-12-19T07:49:06.177Z,100271.84
2022-12-19T07:50:09.171Z,100268.63
2022-12-19T07:51:11.950Z,100266.06
2022-12-19T07:52:14.738Z,100273.25
2022-12-19T07:53:17.476Z,100280.00
2022-12-19T07:54:20.198Z,100286.84
2022-12-19T07:55:22.991Z,100287.50
2022-12-19T07:56:25.668Z,100277.37
2022-12-19T07:57:28.777Z,100289.59
2022-12-19T07:58:31.969Z,100294.37
2022-12-19T07:59:38.898Z,100307.28
2022-12-19T08:00:42.570Z,100303.00
2022-12-19T08:01:45.513Z,100301.84
2022-12-19T08:02:49.046Z,100304.53
2022-12-19T08:03:54.637Z,100280.22
2022-12-19T08:04:57.178Z,100299.00
2022-12-19T08:06:01.861Z,100297.28
2022-12-19T08:07:05.293Z,100304.50
2022-12-19T08:08:09.027Z,100310.22
2022-12-19T08:09:12.214Z,100306.47
2022-12-19T08:10:15.995Z,100308.94
2022-12-19T08:11:27.818Z,100317.22
2022-12-19T08:12:33.760Z,100314.59
2022-12-19T08:13:40.924Z,100300.63
2022-12-19T08:14:47.235Z,100312.09
2022-12-19T08:15:50.306Z,100312.91
2022-12-19T08:17:19.889Z,100316.31
2022-12-19T08:18:15.932Z,100317.59
2022-12-19T08:19:21.461Z,100314.91
2022-12-19T08:20:27.441Z,100316.34
2022-12-19T08:21:30.699Z,100313.47
2022-12-19T08:22:33.463Z,100320.03
2022-12-19T08:23:36.204Z,100311.37
2022-12-19T08:24:39.007Z,100313.31
2022-12-19T08:25:41.709Z,100317.41
2022-12-19T08:26:47.659Z,100313.41
2022-12-19T08:27:50.963Z,100306.94
2022-12-19T08:28:56.149Z,100305.06
2022-12-19T08:29:58.929Z,100295.44
2022-12-19T08:31:10.435Z,100304.69
2022-12-19T08:32:18.624Z,100302.50
2022-12-19T08:33:23.312Z,100299.22
2022-12-19T08:34:26.060Z,100286.25
2022-12-19T08:35:29.127Z,100296.00
2022-12-19T08:36:32.006Z,100301.16
2022-12-19T08:37:34.650Z,100290.56
2022-12-19T08:38:39.836Z,100292.16
2022-12-19T08:39:42.489Z,100282.69
2022-12-19T08:40:52.742Z,100283.94
2022-12-19T08:41:55.402Z,100282.66
2022-12-19T08:42:58.106Z,100280.56
2022-12-19T08:44:01.157Z,100277.37
2022-12-19T08:45:04.540Z,100265.66
2022-12-19T08:46:08.285Z,100278.84
2022-12-19T08:47:11.415Z,100266.78
2022-12-19T08:48:14.231Z,100279.91
2022-12-19T08:49:16.990Z,100279.25
2022-12-19T08:50:19.898Z,100276.75
2022-12-19T08:51:22.672Z,100284.13
2022-12-19T08:52:25.490Z,100283.16
2022-12-19T08:53:29.734Z,100274.31
2022-12-19T08:54:32.583Z,100279.62
2022-12-19T08:55:35.995Z,100275.28
2022-12-19T08:56:45.177Z,100278.22
2022-12-19T08:57:49.771Z,100278.38
2022-12-19T08:58:52.611Z,100274.03
2022-12-19T08:59:55.339Z,100278.22
2022-12-19T09:01:05.239Z,100280.13
2022-12-19T09:02:09.923Z,100277.34
2022-12-19T09:03:12.843Z,100283.84
2022-12-19T09:05:58.725Z,100280.59
2022-12-19T09:06:03.331Z,100276.06
2022-12-19T09:07:02.139Z,100274.06
2022-12-19T09:08:05.362Z,100267.91
2022-12-19T09:09:08.075Z,100268.59
2022-12-19T09:10:10.864Z,100269.97
2022-12-19T09:11:16.710Z,100261.19
2022-12-19T09:12:20.021Z,100261.34
2022-12-19T09:13:22.781Z,100256.12
2022-12-19T09:14:25.477Z,100245.91
2022-12-19T09:15:28.189Z,100258.91
2022-12-19T09:16:31.073Z,100251.81
2022-12-19T09:17:33.852Z,100268.09
2022-12-19T09:18:38.114Z,100274.59
2022-12-19T09:19:42.620Z,100273.03
2022-12-19T09:20:54.432Z,100270.56
2022-12-19T09:21:57.221Z,100284.13
2022-12-19T09:23:00.133Z,100280.13
2022-12-19T09:24:07.978Z,100289.84
2022-12-19T09:25:11.255Z,100291.00
2022-12-19T09:26:14.376Z,100296.59
2022-12-19T09:27:17.516Z,100295.59
2022-12-19T09:28:28.424Z,100288.13
2022-12-19T09:29:35.353Z,100285.72
2022-12-19T09:30:38.596Z,100282.62
2022-12-19T09:31:41.492Z,100285.38
2022-12-19T09:32:44.074Z,100278.84
2022-12-19T09:33:47.933Z,100270.06
2022-12-19T09:34:50.621Z,100270.66
2022-12-19T09:35:55.481Z,100273.97
2022-12-19T09:36:59.643Z,100273.41
2022-12-19T09:38:03.991Z,100262.47
2022-12-19T09:39:06.931Z,100258.19
2022-12-19T09:40:15.984Z,100259.38
2022-12-19T09:41:37.685Z,100258.72
2022-12-19T09:43:19.858Z,100255.59
2022-12-19T09:44:50.567Z,100255.19
2022-12-19T09:46:17.991Z,100259.38
2022-12-19T09:47:25.374Z,100254.41
2022-12-19T09:48:28.030Z,100249.22
2022-12-19T09:49:39.754Z,100243.31
2022-12-19T09:51:11.188Z,100240.94
2022-12-19T09:52:51.440Z,100243.31
2022-12-19T09:54:10.958Z,100236.34
2022-12-19T09:55:26.133Z,100232.16
2022-12-19T09:56:38.044Z,100225.84
2022-12-19T09:58:12.457Z,100231.06
2022-12-19T09:59:41.414Z,100225.31
2022-12-19T10:00:55.034Z,100235.97
2022-12-19T10:02:36.945Z,100234.00
2022-12-19T10:03:47.368Z,100224.81
2022-12-19T10:04:57.106Z,100219.06
2022-12-19T10:07:16.302Z,100220.59
2022-12-19T10:08:07.152Z,100228.62
2022-12-19T10:10:35.826Z,100222.63
2022-12-19T10:12:36.240Z,100221.72
2022-12-19T10:12:41.315Z,100206.00
2022-12-19T10:14:22.092Z,100212.72
2022-12-19T10:15:47.648Z,100214.72
2022-12-19T10:17:25.330Z,100222.00
2022-12-19T10:18:31.188Z,100219.09
2022-12-19T10:19:49.795Z,100226.16
2022-12-19T10:21:09.812Z,100235.81
2022-12-19T10:22:21.687Z,100233.69
2022-12-19T10:23:53.062Z,100223.59
2022-12-19T10:25:08.515Z,100219.56
2022-12-19T10:26:24.465Z,100221.53
2022-12-19T10:28:10.539Z,100214.84
2022-12-19T10:29:25.520Z,100221.81
2022-12-19T10:30:33.441Z,100222.44
2022-12-19T10:31:58.727Z,100211.34
2022-12-19T10:33:46.065Z,100204.19
2022-12-19T10:34:51.487Z,100194.75
2022-12-19T10:36:01.604Z,100205.25
2022-12-19T10:37:26.503Z,100194.31
2022-12-19T10:38:55.234Z,100201.50
2022-12-19T10:40:11.684Z,100200.44
2022-12-19T10:41:26.135Z,100194.53
2022-12-19T10:42:47.210Z,100196.09
2022-12-19T10:44:10.400Z,100186.59
2022-12-19T10:45:17.352Z,100185.44
2022-12-19T10:46:36.828Z,100186.56
2022-12-19T10:47:40.974Z,100191.84
2022-12-19T10:48:43.982Z,100189.59
2022-12-19T10:49:46.665Z,100192.00
2022-12-19T10:50:49.840Z,100187.03
2022-12-19T10:51:59.269Z,100187.59
2022-12-19T10:53:04.849Z,100188.47
2022-12-19T10:54:07.911Z,100193.81
2022-12-19T10:55:46.435Z,100188.31
2022-12-19T10:56:49.762Z,100175.00
2022-12-19T10:57:52.784Z,100186.03
2022-12-19T10:59:00.787Z,100180.19
2022-12-19T11:00:22.750Z,100177.38
2022-12-19T11:01:33.628Z,100185.53
2022-12-19T11:02:39.661Z,100180.34
2022-12-19T11:03:46.871Z,100182.03
2022-12-19T11:04:49.929Z,100174.91
2022-12-19T11:05:57.952Z,100175.38
2022-12-19T11:07:04.073Z,100167.59
2022-12-19T11:08:06.841Z,100176.19
2022-12-19T11:09:22.983Z,100176.19
2022-12-19T11:12:02.659Z,100183.41
2022-12-19T11:15:55.991Z,100169.25
2022-12-19T11:17:08.074Z,100190.56
2022-12-19T11:19:28.647Z,100186.31
2022-12-19T11:21:48.440Z,100185.34
2022-12-19T11:24:12.908Z,100175.13
2022-12-19T11:29:18.575Z,100182.72
2022-12-19T11:29:40.576Z,100183.94
2022-12-19T11:29:54.950Z,100178.44
2022-12-19T11:30:21.351Z,100182.22
2022-12-19T11:30:36.676Z,100177.91
2022-12-19T11:30:46.603Z,100171.44
2022-12-19T11:30:48.383Z,100165.69
2022-12-19T11:33:17.025Z,100165.22
2022-12-19T11:34:23.817Z,100163.75
2022-12-19T11:35:36.602Z,100155.63
2022-12-19T11:37:08.310Z,100151.88
2022-12-19T11:38:15.181Z,100144.88
2022-12-19T11:39:37.200Z,100152.13
2022-12-19T11:40:59.613Z,100147.31
2022-12-19T11:42:14.186Z,100149.91
2022-12-19T11:43:46.499Z,100142.78
2022-12-19T11:45:14.001Z,100142.84
2022-12-19T11:46:22.547Z,100142.34
2022-12-19T11:47:46.161Z,100140.34
2022-12-19T11:48:58.002Z,100141.78
2022-12-19T11:50:10.212Z,100134.66
2022-12-19T11:51:36.951Z,100131.22
2022-12-19T11:53:04.452Z,100136.41
2022-12-19T11:54:24.314Z,100125.56
2022-12-19T11:55:36.530Z,100118.69
2022-12-19T11:56:39.554Z,100128.25
2022-12-19T11:57:43.052Z,100121.50
2022-12-19T11:58:50.861Z,100122.78
2022-12-19T11:59:55.612Z,100120.94
2022-12-19T12:01:09.429Z,100117.31
2022-12-19T12:02:44.123Z,100113.78
2022-12-19T12:04:05.146Z,100114.19
2022-12-19T12:05:19.497Z,100103.34
2022-12-19T12:06:31.550Z,100110.97
2022-12-19T12:08:56.014Z,100118.13
2022-12-19T12:14:27.906Z,100115.37
2022-12-19T12:17:30.863Z,100110.88
2022-12-19T12:21:05.482Z,100104.06
2022-12-19T12:21:59.530Z,100110.72
2022-12-19T12:29:59.858Z,100117.66
2022-12-19T12:30:39.085Z,100114.13
2022-12-19T12:31:05.781Z,100115.03
2022-12-19T12:31:06.542Z,100096.31
2022-12-19T12:31:20.666Z,100102.69
2022-12-19T12:31:40.563Z,100099.84
2022-12-19T12:31:40.799Z,100106.34
2022-12-19T12:31:52.734Z,100101.75
2022-12-19T12:32:04.207Z,100108.66
2022-12-19T12:32:06.519Z,100107.28
2022-12-19T12:35:54.320Z,100104.94
2022-12-19T12:35:56.945Z,100097.91
2022-12-19T12:37:52.552Z,100100.41
2022-12-19T12:39:10.957Z,100105.72
2022-12-19T12:40:43.248Z,100110.03
2022-12-19T12:42:09.249Z,100113.66
2022-12-19T12:44:08.044Z,100099.91
2022-12-19T12:45:40.444Z,100117.31
2022-12-19T12:46:50.166Z,100099.06
2022-12-19T12:47:53.866Z,100105.75
2022-12-19T12:49:32.179Z,100098.59
2022-12-19T12:50:35.969Z,100104.22
2022-12-19T12:51:38.928Z,100108.44
2022-12-19T12:52:53.331Z,100107.66
2022-12-19T12:54:07.962Z,100098.56
2022-12-19T12:55:31.471Z,100096.00
2022-12-19T12:56:36.841Z,100091.25
2022-12-19T12:57:39.565Z,100086.31
2022-12-19T12:59:05.499Z,100092.56
2022-12-19T13:00:28.612Z,100079.47
2022-12-19T13:01:34.443Z,100072.59
2022-12-19T13:02:37.385Z,100082.78
2022-12-19T13:03:43.799Z,100083.84
2022-12-19T13:05:00.109Z,100089.06
2022-12-19T13:06:21.301Z,100088.63
2022-12-19T13:07:50.439Z,100085.22
2022-12-19T13:09:18.072Z,100078.69
2022-12-19T13:10:28.215Z,100073.16
2022-12-19T13:11:49.646Z,100066.06
2022-12-19T13:13:02.672Z,100078.09
2022-12-19T13:14:25.837Z,100076.56
2022-12-19T13:15:28.616Z,100059.44
2022-12-19T13:16:43.261Z,100078.00
2022-12-19T13:17:49.613Z,100069.81
2022-12-19T13:19:22.538Z,100069.91
2022-12-19T13:20:30.100Z,100062.22
2022-12-19T13:22:04.768Z,100069.03
2022-12-19T13:23:34.035Z,100068.91